Time;durP1;ratioP1;P1;durP2;ratioP2;P2;SDS_P1;SDS_P2;PMS_P1;PMS_P2;Temp;Humidity;BMP_temperature;BMP_pressure;BME280_temperature;BME280_humidity;BME280_pressure;Samples;Min_cycle;Max_cycle;Signal;HPM_P1;HPM_P2
2022/05/20 00:00:19;;;;;;;9.50;6.30;;;;;;;20.13;100.00;101008.19;4985839;28;20066;-76
2022/05/20 00:02:46;;;;;;;7.72;5.95;;;;;;;20.08;100.00;101008.44;4972121;28;20929;-77
2022/05/20 00:05:14;;;;;;;8.82;5.97;;;;;;;20.08;100.00;101008.44;4970338;28;20073;-77
2022/05/20 00:07:42;;;;;;;10.38;5.82;;;;;;;20.00;100.00;101010.66;4967942;28;20527;-77
2022/05/20 00:10:15;;;;;;;8.15;6.78;;;19.80;99.90;;;19.90;100.00;100998.69;4967020;28;20051;-77
2022/05/20 00:12:43;;;;;;;10.70;5.70;;;;;;;19.82;100.00;100997.31;4968296;28;20065;-76
2022/05/20 00:15:16;;;;;;;10.98;6.57;;;19.70;99.90;;;19.92;100.00;100986.19;4952360;29;20079;-77
2022/05/20 00:17:43;;;;;;;8.10;6.22;;;19.70;99.90;;;19.93;100.00;100990.59;4968461;28;20055;-77
2022/05/20 00:20:15;;;;;;;9.18;7.05;;;19.50;99.90;;;20.03;100.00;100985.59;4967403;28;20058;-77
2022/05/20 00:22:42;;;;;;;8.68;5.78;;;;;;;19.97;100.00;100986.78;4952637;29;20039;-77
2022/05/20 00:27:59;;;;;;;13.60;5.95;;;;;;;19.77;100.00;100970.00;4971735;28;20468;-77
2022/05/20 00:30:26;;;;;;;8.20;6.75;;;19.70;99.90;;;19.75;100.00;100971.91;4970510;28;20161;-77
2022/05/20 00:32:53;;;;;;;8.63;6.05;;;19.70;99.90;;;19.81;100.00;100970.69;4971084;28;20051;-77
2022/05/20 00:35:22;;;;;;;7.20;5.88;;;19.60;99.90;;;19.74;100.00;100970.16;4954568;28;20046;-77
2022/05/20 00:37:50;;;;;;;7.78;6.53;;;;;;;19.77;100.00;100972.69;4955558;28;20492;-77
2022/05/20 00:40:22;;;;;;;8.32;5.72;;;19.60;99.90;;;19.68;100.00;100959.81;4971131;28;20508;-77
2022/05/20 00:42:50;;;;;;;8.45;5.32;;;;;;;19.72;100.00;100976.53;4955036;28;20102;-77
2022/05/20 00:45:18;;;;;;;8.68;6.32;;;;;;;19.70;100.00;100965.91;4970520;28;20059;-77
2022/05/20 00:47:45;;;;;;;5.95;5.35;;;;;;;19.77;100.00;100963.78;4971361;28;20062;-77
2022/05/20 00:50:17;;;;;;;8.38;6.47;;;19.50;99.90;;;19.67;100.00;100950.06;4970640;28;20066;-77
2022/05/20 00:52:49;;;;;;;8.02;6.05;;;19.50;99.90;;;19.62;100.00;100949.47;4970986;28;20077;-77
2022/05/20 00:55:21;;;;;;;7.32;6.15;;;19.50;99.90;;;19.71;100.00;100959.63;4970964;28;20062;-77
2022/05/20 00:58:00;;;;;;;8.63;6.13;;;19.50;99.90;;;19.62;100.00;100955.66;4954755;28;20058;-77
2022/05/20 01:00:31;;;;;;;8.05;5.80;;;19.50;99.90;;;19.58;100.00;100963.91;4976871;28;20130;-76
2022/05/20 01:03:06;;;;;;;6.30;5.63;;;19.50;99.90;;;19.58;100.00;100964.78;4963164;28;20122;-77
2022/05/20 01:05:48;;;;;;;11.75;6.35;;;19.50;99.90;;;19.56;100.00;100954.16;4970793;28;20129;-77
2022/05/20 01:08:22;;;;;;;6.20;5.60;;;19.40;99.90;;;19.58;100.00;100946.09;4971443;28;20053;-77
2022/05/20 01:10:50;;;;;;;10.73;7.05;;;;;;;19.57;100.00;100947.03;4971039;28;20488;-78
2022/05/20 01:13:19;;;;;;;8.63;5.70;;;19.40;99.90;;;19.53;100.00;100950.81;4986454;28;20061;-78
2022/05/20 01:16:07;;;;;;;6.95;6.20;;;19.10;99.90;;;19.45;100.00;100943.22;4970277;28;20050;-77
2022/05/20 01:18:59;;;;;;;7.03;6.28;;;;;;;19.51;100.00;100940.22;4953212;28;20058;-77
2022/05/20 01:22:20;;;;;;;11.55;6.82;;;19.30;99.90;;;19.50;100.00;100935.81;4974170;28;20050;-77
2022/05/20 01:30:49;;;;;;;9.80;7.55;;;19.20;99.90;;;19.44;100.00;100946.84;4954848;29;20136;-77
2022/05/20 01:34:33;;;;;;;10.00;6.78;;;19.30;99.90;;;19.48;100.00;100953.72;4944097;29;20054;-77
2022/05/20 01:37:57;;;;;;;9.65;7.25;;;;;;;19.35;100.00;100949.97;4926509;29;20055;-76
2022/05/20 01:40:27;;;;;;;14.07;8.20;;;;;;;19.38;100.00;100953.34;4970390;28;20059;-77
2022/05/20 01:43:14;;;;;;;8.98;6.22;;;19.20;99.90;;;19.37;100.00;100943.63;4974797;28;20093;-77
2022/05/20 01:46:52;;;;;;;7.70;6.55;;;19.20;99.90;;;19.32;100.00;100950.13;4952772;28;20055;-77
2022/05/20 01:49:30;;;;;;;11.25;8.57;;;19.10;99.90;;;19.34;100.00;100949.09;4939317;28;20050;-77
2022/05/20 01:52:42;;;;;;;10.40;6.93;;;19.40;99.90;;;19.36;100.00;100959.69;4957409;28;20066;-77
2022/05/20 01:55:38;;;;;;;13.15;8.05;;;19.20;99.90;;;19.29;100.00;100963.63;4941136;28;20046;-77
2022/05/20 01:58:21;;;;;;;14.00;7.30;;;19.20;99.90;;;19.27;100.00;100953.88;4974735;28;20055;-77
2022/05/20 02:00:55;;;;;;;9.82;8.10;;;19.00;99.90;;;19.19;100.00;100939.19;4972682;28;20133;-77
2022/05/20 02:03:38;;;;;;;11.57;8.27;;;19.00;99.90;;;19.20;100.00;100933.81;4957219;28;20054;-77
2022/05/20 02:06:42;;;;;;;7.85;7.00;;;19.40;99.90;;;19.26;100.00;100938.81;4970245;28;20082;-77
2022/05/20 02:09:20;;;;;;;8.45;7.57;;;19.00;99.90;;;19.22;100.00;100939.91;4927248;28;20055;-77
2022/05/20 02:11:52;;;;;;;9.23;7.97;;;19.00;99.90;;;19.11;100.00;100921.81;4989407;28;20051;-77
2022/05/20 02:14:37;;;;;;;9.15;6.70;;;19.00;99.90;;;19.17;100.00;100936.63;4972982;28;20082;-77
2022/05/20 02:17:19;;;;;;;7.78;6.72;;;19.50;99.90;;;19.17;100.00;100935.75;4972686;28;20051;-77
2022/05/20 02:20:01;;;;;;;12.52;7.68;;;19.20;99.90;;;19.20;100.00;100952.47;4972275;28;20046;-77
2022/05/20 02:22:34;;;;;;;8.73;6.68;;;19.00;99.90;;;19.08;100.00;100942.44;4973136;28;20039;-77
2022/05/20 02:25:05;;;;;;;9.80;7.22;;;18.90;99.90;;;19.01;100.00;100946.34;4972866;28;20103;-77
2022/05/20 02:27:40;;;;;;;10.52;7.55;;;18.80;99.90;;;19.09;100.00;100957.47;4958505;28;20047;-77
2022/05/20 02:30:31;;;;;;;9.40;7.68;;;19.20;99.90;;;19.06;100.00;100941.66;4974464;28;20256;-77
2022/05/20 02:33:07;;;;;;;9.80;6.40;;;18.90;99.90;;;19.08;100.00;100945.09;4974437;28;20508;-76
2022/05/20 02:35:35;;;;;;;15.48;7.68;;;;;;;19.00;100.00;100942.81;4974531;28;20144;-77
2022/05/20 02:38:07;;;;;;;10.38;6.43;;;18.90;99.90;;;18.99;100.00;100949.09;4972886;28;20047;-77
2022/05/20 02:40:35;;;;;;;9.00;6.47;;;;;;;19.01;100.00;100957.88;4972107;28;20146;-77
2022/05/20 02:43:03;;;;;;;9.02;6.57;;;;;;;19.03;100.00;100955.97;4989303;28;20061;-77
2022/05/20 02:45:31;;;;;;;8.73;5.80;;;;;;;18.99;100.00;100960.63;4990334;28;20046;-77
2022/05/20 02:47:58;;;;;;;10.50;6.57;;;;;;;19.01;100.00;100954.34;4994716;28;20512;-77
2022/05/20 02:50:26;;;;;;;8.77;6.32;;;;;;;18.96;100.00;100958.06;4994358;28;20042;-77
2022/05/20 02:52:53;;;;;;;11.93;6.90;;;;;;;18.92;100.00;100960.97;4979909;28;20098;-77
2022/05/20 02:55:20;;;;;;;6.88;5.28;;;;;;;18.86;100.00;100967.47;4978012;28;20123;-77
2022/05/20 02:57:48;;;;;;;7.47;5.88;;;;;;;18.89;100.00;100964.66;4977772;28;20085;-77
2022/05/20 03:05:38;;;;;;;9.25;5.63;;;;;;;18.91;100.00;100959.25;4977844;28;20139;-76
2022/05/20 03:08:05;;;;;;;6.63;5.28;;;;;;;18.87;100.00;100955.88;4978891;28;20053;-77
2022/05/20 03:10:33;;;;;;;9.80;5.93;;;;;;;18.87;100.00;100949.66;4977495;28;20067;-77
2022/05/20 03:13:03;;;;;;;7.47;5.85;;;18.70;99.90;;;18.85;100.00;100950.59;4980348;28;20061;-77
2022/05/20 03:15:30;;;;;;;;;;;18.70;99.90;;;18.84;100.00;100953.38;4963642;28;20054;-77
2022/05/20 03:17:58;;;;;;;7.30;5.60;;;;;;;18.81;100.00;100950.81;4977657;28;19929;-77
2022/05/20 03:20:26;;;;;;;9.55;6.05;;;;;;;18.78;100.00;100948.31;4973986;28;20051;-77
2022/05/20 03:22:53;;;;;;;7.03;5.57;;;;;;;18.77;100.00;100952.81;4986239;28;20146;-76
2022/05/20 03:25:21;;;;;;;12.90;5.97;;;;;;;18.83;100.00;100955.16;4970430;28;20039;-77
2022/05/20 03:27:49;;;;;;;7.13;5.47;;;;;;;18.78;100.00;100953.66;4969635;28;20546;-77
2022/05/20 03:30:17;;;;;;;10.55;6.40;;;;;;;18.76;100.00;100963.53;4970546;28;20145;-77
2022/05/20 03:32:44;;;;;;;8.43;5.43;;;;;;;18.79;100.00;100952.72;4971146;28;20074;-77
2022/05/20 03:35:12;;;;;;;11.23;6.45;;;;;;;18.74;100.00;100949.41;4969359;28;20039;-77
2022/05/20 03:37:40;;;;;;;9.65;5.70;;;;;;;18.70;100.00;100949.56;4970740;28;20121;-77
2022/05/20 03:40:08;;;;;;;7.07;6.15;;;;;;;18.74;100.00;100944.09;4985116;28;20066;-77
2022/05/20 03:42:36;;;;;;;6.57;5.88;;;18.50;99.90;;;18.76;100.00;100942.19;4989039;28;20093;-78
2022/05/20 03:45:04;;;;;;;6.78;5.35;;;18.60;99.90;;;18.74;100.00;100944.09;4973432;28;20125;-78
2022/05/20 03:47:32;;;;;;;6.88;5.63;;;;;;;18.70;100.00;100938.03;4973329;28;20054;-78
2022/05/20 03:50:00;;;;;;;8.13;6.18;;;;;;;18.69;100.00;100934.53;4973124;28;20058;-78
2022/05/20 03:52:28;;;;;;;6.60;5.85;;;;;;;18.67;100.00;100923.06;4990214;28;20534;-78
2022/05/20 03:54:56;;;;;;;8.45;5.82;;;18.10;99.90;;;18.65;100.00;100927.59;4975260;28;20047;-79
2022/05/20 03:57:23;;;;;;;6.13;5.50;;;;;;;18.65;100.00;100929.41;4952242;28;20050;-78
2022/05/20 03:59:50;;;;;;;7.22;5.40;;;;;;;18.67;100.00;100930.19;4968083;28;20062;-79
2022/05/20 04:02:18;;;;;;;8.20;5.65;;;18.10;99.90;;;18.63;100.00;100915.31;4964878;28;20050;-78
2022/05/20 04:04:50;;;;;;;10.25;6.07;;;18.50;99.90;;;18.68;100.00;100921.25;4984138;28;20051;-78
2022/05/20 04:07:26;;;;;;;9.55;5.30;;;18.50;99.90;;;18.68;100.00;100921.25;4968023;28;20038;-78
2022/05/20 04:09:53;;;;;;;12.27;5.88;;;19.10;99.90;;;18.59;100.00;100917.25;4967351;28;20046;-78
2022/05/20 04:12:29;;;;;;;7.97;5.32;;;18.60;99.90;;;18.65;100.00;100921.41;4967912;28;20073;-78
2022/05/20 04:14:57;;;;;;;9.82;6.95;;;17.90;99.90;;;18.63;100.00;100920.63;4968163;28;20714;-78
2022/05/20 04:17:25;;;;;;;7.15;5.32;;;18.50;99.90;;;18.62;100.00;100926.91;4967663;28;20412;-78
2022/05/20 04:19:52;;;;;;;6.28;5.68;;;18.50;99.90;;;18.62;100.00;100916.25;4969128;28;20046;-78
2022/05/20 04:22:27;;;;;;;8.63;6.25;;;18.50;99.90;;;18.61;100.00;100904.72;4967781;28;20058;-78
2022/05/20 04:24:54;;;;;;;8.40;6.63;;;18.50;99.90;;;18.62;100.00;100908.25;4969165;28;20059;-78
2022/05/20 04:27:21;;;;;;;7.60;5.93;;;18.50;99.90;;;18.70;100.00;100922.03;4967890;28;20046;-78
2022/05/20 04:29:49;;;;;;;6.85;6.15;;;19.30;99.90;;;18.69;100.00;100926.53;4969010;28;20118;-78
2022/05/20 04:32:17;;;;;;;9.93;6.53;;;18.50;99.90;;;18.63;100.00;100932.13;4969365;28;20047;-79
2022/05/20 04:34:44;;;;;;;7.60;5.90;;;18.60;99.90;;;18.65;100.00;100932.91;4968878;28;20035;-78
2022/05/20 04:37:13;;;;;;;9.30;6.20;;;;;;;18.62;100.00;100927.75;4984695;28;20047;-79
2022/05/20 04:39:41;;;;;;;12.37;6.43;;;18.60;99.90;;;18.63;100.00;100925.97;4969135;28;20503;-78
2022/05/20 04:47:44;;;;;;;8.73;6.43;;;18.60;99.90;;;18.76;100.00;100923.53;4969822;28;19932;-78
2022/05/20 04:50:11;;;;;;;11.20;7.97;;;18.50;99.90;;;18.76;100.00;100928.88;4983804;28;20050;-78
2022/05/20 04:52:38;;;;;;;9.43;6.82;;;20.10;99.90;;;18.73;100.00;100926.38;4967946;28;20078;-78
2022/05/20 04:55:07;;;;;;;9.13;6.65;;;18.70;99.90;;;18.78;100.00;100932.31;4967965;28;20038;-78
2022/05/20 04:57:48;;;;;;;7.88;6.72;;;18.60;99.90;;;18.82;100.00;100932.09;4967723;28;20723;-79
2022/05/20 05:00:27;;;;;;;8.60;6.72;;;18.60;99.90;;;18.90;100.00;100942.38;4968454;28;20043;-78
2022/05/20 05:02:55;;;;;;;9.43;6.80;;;18.70;99.90;;;18.94;100.00;100945.75;4969564;28;20126;-78
2022/05/20 05:05:27;;;;;;;8.35;6.90;;;18.70;99.90;;;18.94;100.00;100943.94;4968530;28;20055;-78
2022/05/20 05:07:56;;;;;;;6.70;5.93;;;18.70;99.90;;;18.92;100.00;100951.16;4969649;28;20141;-78
2022/05/20 05:10:28;;;;;;;9.17;6.70;;;18.90;99.90;;;19.00;100.00;100950.81;4976667;28;20043;-77
2022/05/20 05:12:56;;;;;;;8.80;6.40;;;19.70;99.90;;;18.97;100.00;100956.28;4979718;28;20293;-77
2022/05/20 05:15:23;;;;;;;12.57;6.75;;;18.80;99.90;;;18.96;100.00;100951.88;4967723;28;20050;-74
2022/05/20 05:20:46;;;;;;;7.47;6.15;;;18.80;99.90;;;19.08;100.00;100951.31;4970388;28;20054;-74
2022/05/20 05:23:15;;;;;;;11.02;6.75;;;18.90;99.90;;;19.07;100.00;100954.03;4971526;28;20117;-74
2022/05/20 05:25:43;;;;;;;9.68;6.75;;;19.80;99.90;;;19.15;100.00;100962.53;4970593;28;20058;-75
2022/05/20 05:28:10;;;;;;;8.85;6.32;;;18.90;99.90;;;19.13;100.00;100965.25;4971706;28;20055;-76
2022/05/20 05:30:37;;;;;;;11.00;6.82;;;18.80;99.90;;;19.08;100.00;100967.31;4981293;28;20157;-75
2022/05/20 05:33:04;;;;;;;14.27;7.05;;;18.90;99.90;;;19.13;100.00;100969.75;4984708;28;20052;-75
2022/05/20 05:35:32;;;;;;;7.80;6.55;;;18.90;99.90;;;19.21;100.00;100967.53;4975944;28;20741;-74
2022/05/20 05:37:59;;;;;;;12.60;7.68;;;19.20;99.90;;;19.20;100.00;100979.16;4986657;28;20575;-76
2022/05/20 05:40:31;;;;;;;9.93;7.18;;;19.20;99.90;;;19.33;100.00;100978.53;4953762;28;20518;-76
2022/05/20 05:43:00;;;;;;;9.65;6.60;;;19.00;99.90;;;19.36;100.00;100973.03;4955941;28;20043;-77
2022/05/20 05:45:30;;;;;;;7.65;6.38;;;19.10;99.90;;;19.36;100.00;100970.38;4964124;28;20070;-76
2022/05/20 05:48:07;;;;;;;10.13;6.90;;;19.90;99.90;;;19.41;100.00;100974.53;4973898;28;20072;-74
2022/05/20 05:50:40;;;;;;;9.32;6.90;;;19.20;99.90;;;19.44;100.00;100973.50;4972428;28;20129;-76
2022/05/20 05:53:17;;;;;;;11.57;7.15;;;19.20;99.90;;;19.42;100.00;100976.25;4972792;28;20051;-75
2022/05/20 05:55:48;;;;;;;13.18;6.70;;;19.30;99.90;;;19.48;100.00;100977.75;4973212;28;20043;-75
2022/05/20 05:58:16;;;;;;;8.20;6.88;;;19.30;99.90;;;19.51;100.00;100966.91;4973006;28;20050;-75
2022/05/20 06:00:43;;;;;;;8.48;6.32;;;19.30;99.90;;;19.56;100.00;100964.84;4973558;28;20427;-74
2022/05/20 06:03:11;;;;;;;8.10;6.32;;;19.40;99.90;;;19.66;100.00;100967.03;4957493;28;20050;-74
2022/05/20 06:05:38;;;;;;;8.32;5.93;;;19.40;99.90;;;19.69;100.00;100965.06;4974982;28;20050;-76
2022/05/20 06:08:06;;;;;;;6.90;6.20;;;19.50;99.90;;;19.73;100.00;100968.41;4972023;28;20583;-76
2022/05/20 06:10:34;;;;;;;8.18;5.72;;;;;;;19.84;100.00;100968.72;4970770;28;20066;-77
2022/05/20 06:13:01;;;;;;;9.77;6.72;;;19.90;99.90;;;19.89;100.00;100960.47;4973635;28;20081;-77
2022/05/20 06:15:29;;;;;;;6.90;5.68;;;;;;;20.01;100.00;100958.97;4970436;28;20043;-77
2022/05/20 06:17:56;;;;;;;10.05;6.13;;;19.40;99.90;;;20.07;100.00;100957.78;4970770;28;20719;-75
2022/05/20 06:20:26;;;;;;;8.40;6.53;;;19.80;99.90;;;20.14;100.00;100955.63;4984923;28;20463;-76
2022/05/20 06:22:54;;;;;;;7.10;6.38;;;19.80;99.90;;;20.11;100.00;100951.31;4973221;28;20038;-75
2022/05/20 06:25:24;;;;;;;9.90;7.05;;;;;;;20.23;100.00;100945.28;4975620;28;20053;-75
2022/05/20 06:27:51;;;;;;;7.18;5.95;;;19.90;99.90;;;20.33;100.00;100950.13;5009077;28;20128;-75
2022/05/20 06:30:20;;;;;;;6.75;6.15;;;20.00;99.90;;;20.42;100.00;100954.09;4980974;28;20054;-75
2022/05/20 06:32:48;;;;;;;9.18;5.88;;;20.90;99.90;;;20.45;100.00;100946.78;4984631;28;20051;-76
2022/05/20 06:40:49;;;;;;;9.10;5.97;;;20.20;99.90;;;20.58;100.00;100938.03;4975281;28;20047;-77
2022/05/20 06:43:20;;;;;;;8.55;6.15;;;20.20;99.90;;;20.62;100.00;100940.47;4990389;28;20074;-77
2022/05/20 06:45:51;;;;;;;9.82;6.18;;;20.80;99.90;;;20.69;100.00;100947.19;4974920;28;20130;-77
2022/05/20 06:48:47;;;;;;;11.85;6.55;;;20.40;99.90;;;20.77;100.00;100952.09;4983272;28;20055;-77
2022/05/20 06:51:22;;;;;;;7.35;6.63;;;20.50;99.90;;;20.81;100.00;100953.66;4980838;28;20042;-79
2022/05/20 06:53:54;;;;;;;8.88;6.28;;;20.50;99.90;;;20.92;100.00;100950.34;4985423;28;20034;-78
2022/05/20 06:56:24;;;;;;;7.78;6.32;;;20.60;99.90;;;20.93;100.00;100946.72;4978582;28;20069;-78
2022/05/20 06:58:52;;;;;;;;;;;20.60;99.90;;;21.02;100.00;100944.47;4977815;28;20103;-79
2022/05/20 07:01:19;;;;;;;7.65;6.75;;;;;;;21.06;100.00;100948.69;4992237;28;19926;-76
2022/05/20 07:03:47;;;;;;;8.95;6.75;;;;;;;21.15;100.00;100949.94;4998861;28;20481;-76
2022/05/20 07:06:16;;;;;;;9.85;7.05;;;20.80;99.90;;;21.20;100.00;100951.41;4968459;28;20585;-75
2022/05/20 07:08:50;;;;;;;7.30;6.30;;;19.90;99.90;;;21.29;100.00;100944.63;4968512;28;20042;-77
2022/05/20 07:11:23;;;;;;;9.20;6.75;;;20.90;99.90;;;21.34;100.00;100941.69;4984381;28;20089;-76
2022/05/20 07:13:55;;;;;;;10.55;6.95;;;20.70;99.90;;;21.42;100.00;100943.91;4970611;28;20054;-78
2022/05/20 07:16:25;;;;;;;12.30;6.10;;;21.60;99.90;;;21.38;100.00;100936.03;4969013;28;20771;-77
2022/05/20 07:18:52;;;;;;;8.48;6.20;;;21.10;99.90;;;21.49;100.00;100937.22;4968444;28;20392;-77
2022/05/20 07:21:20;;;;;;;9.52;7.00;;;21.20;99.90;;;21.53;100.00;100930.69;4968325;28;20054;-76
2022/05/20 07:23:48;;;;;;;9.18;6.65;;;21.30;99.90;;;21.65;100.00;100934.47;4968731;28;20385;-77
2022/05/20 07:26:17;;;;;;;7.60;6.72;;;21.40;99.90;;;21.69;100.00;100936.03;4969817;28;20560;-77
2022/05/20 07:28:45;;;;;;;12.85;6.57;;;21.20;99.90;;;21.54;100.00;100929.75;4975110;28;20065;-77
2022/05/20 07:31:14;;;;;;;8.98;6.57;;;21.20;99.90;;;21.64;100.00;100922.03;4968338;28;20047;-76
2022/05/20 07:33:43;;;;;;;13.90;6.57;;;21.50;99.90;;;21.72;100.00;100925.13;4968942;28;20121;-76
2022/05/20 07:36:10;;;;;;;8.65;6.53;;;21.40;99.90;;;21.74;100.00;100925.03;4968903;28;20049;-76
2022/05/20 07:38:37;;;;;;;10.15;6.43;;;21.60;99.90;;;21.80;100.00;100928.19;4963982;28;20117;-76
2022/05/20 07:41:04;;;;;;;10.27;6.40;;;21.50;99.90;;;21.87;100.00;100922.44;4955812;28;20054;-77
2022/05/20 07:43:32;;;;;;;10.57;6.25;;;21.60;99.90;;;22.01;100.00;100913.50;4954714;28;20045;-77
2022/05/20 07:45:59;;;;;;;9.85;6.90;;;21.60;99.90;;;22.10;100.00;100916.47;4968917;28;20042;-77
2022/05/20 07:48:27;;;;;;;9.48;7.25;;;21.70;99.90;;;22.16;100.00;100907.16;4969566;28;20112;-77
2022/05/20 07:51:08;;;;;;;9.13;6.68;;;21.80;99.90;;;22.20;100.00;100906.03;4970571;28;20118;-77
2022/05/20 07:53:42;;;;;;;8.38;6.03;;;21.80;99.90;;;22.37;100.00;100902.22;4969851;28;20081;-77
2022/05/20 07:56:20;;;;;;;8.18;6.70;;;21.90;99.90;;;22.50;100.00;100902.34;4968619;28;20152;-78
2022/05/20 07:58:59;;;;;;;12.75;7.53;;;22.00;99.90;;;22.52;100.00;100902.22;4955435;28;20038;-78
2022/05/20 08:01:31;;;;;;;11.95;6.50;;;22.10;99.90;;;22.71;100.00;100899.19;4973682;28;20062;-79
2022/05/20 08:07:02;;;;;;;8.63;5.55;;;22.30;99.90;;;23.12;100.00;100886.59;4960605;28;20125;-78
2022/05/20 08:09:29;;;;;;;8.48;5.47;;;22.30;99.90;;;23.25;100.00;100875.00;4953804;28;20047;-79
2022/05/20 08:11:58;;;;;;;9.80;6.50;;;22.70;99.90;;;23.29;100.00;100888.16;4979706;28;20058;-79
2022/05/20 08:14:28;;;;;;;10.40;6.00;;;22.80;99.90;;;23.42;100.00;100876.56;4972308;28;20059;-78
2022/05/20 08:17:00;;;;;;;9.45;6.72;;;22.90;99.90;;;23.50;100.00;100876.84;4970005;28;20043;-77
2022/05/20 08:19:29;;;;;;;7.43;6.72;;;23.00;99.90;;;23.47;100.00;100877.06;4967625;28;20057;-78
2022/05/20 08:21:56;;;;;;;12.00;7.18;;;23.10;99.90;;;23.47;100.00;100871.72;4973750;28;20082;-79
2022/05/20 08:24:23;;;;;;;8.13;7.10;;;23.10;99.90;;;23.44;100.00;100862.03;4974341;28;20840;-79
2022/05/20 08:26:54;;;;;;;9.35;6.63;;;23.10;99.90;;;23.60;100.00;100860.94;4974379;28;20081;-79
2022/05/20 08:29:21;;;;;;;10.07;7.47;;;23.10;99.90;;;23.59;100.00;100861.91;4973108;28;20057;-79
2022/05/20 08:31:48;;;;;;;8.70;6.57;;;23.20;99.90;;;23.68;100.00;100849.66;4969174;28;20154;-79
2022/05/20 08:34:17;;;;;;;7.90;6.95;;;23.30;99.90;;;23.77;100.00;100859.75;4968356;28;20051;-79
2022/05/20 08:36:44;;;;;;;10.40;6.75;;;23.20;99.90;;;23.85;100.00;100865.41;4952001;28;20047;-78
2022/05/20 08:39:12;;;;;;;16.05;7.63;;;23.30;99.90;;;23.84;100.00;100868.22;4958845;28;20053;-76
2022/05/20 08:41:53;;;;;;;9.98;7.32;;;23.40;99.90;;;23.88;100.00;100869.69;4955098;28;20093;-79
2022/05/20 08:44:24;;;;;;;12.10;8.00;;;23.40;99.90;;;23.89;100.00;100858.84;4972541;28;20054;-79
2022/05/20 08:47:23;;;;;;;7.93;7.13;;;23.50;99.90;;;23.89;100.00;100856.16;4971495;28;20078;-80
2022/05/20 08:49:57;;;;;;;9.73;6.80;;;23.60;99.90;;;23.88;100.00;100849.09;4966842;28;20059;-78
2022/05/20 08:52:26;;;;;;;11.85;6.82;;;23.60;99.90;;;23.97;100.00;100847.56;4983664;28;20043;-77
2022/05/20 08:54:54;;;;;;;7.07;6.15;;;23.60;99.90;;;24.00;100.00;100844.63;4969793;28;20066;-78
2022/05/20 08:57:47;;;;;;;13.65;7.75;;;23.60;99.90;;;24.15;100.00;100844.50;4952816;28;20490;-78
2022/05/20 09:00:16;;;;;;;7.35;6.53;;;23.70;99.90;;;24.28;100.00;100837.25;4949443;28;20547;-78
2022/05/20 09:02:44;;;;;;;8.03;7.13;;;23.80;99.90;;;24.28;100.00;100834.56;4976747;28;20058;-78
2022/05/20 09:05:31;;;;;;;10.73;7.45;;;23.90;99.90;;;24.40;100.00;100827.38;4974668;28;20298;-79
2022/05/20 09:08:13;;;;;;;10.32;7.57;;;23.90;99.90;;;24.39;100.00;100822.13;4967000;28;20157;-79
2022/05/20 09:10:54;;;;;;;12.68;7.60;;;24.00;99.90;;;24.38;100.00;100829.34;4975617;28;20047;-78
2022/05/20 09:16:25;;;;;;;6.90;6.00;;;24.10;99.90;;;24.70;100.00;100820.66;4970759;28;20047;-78
2022/05/20 09:19:23;;;;;;;12.38;6.78;;;24.20;99.90;;;24.80;100.00;100812.75;4974199;28;20142;-78
2022/05/20 09:22:14;;;;;;;12.68;7.15;;;24.30;99.90;;;24.85;100.00;100813.25;4954257;28;20526;-78
2022/05/20 09:24:44;;;;;;;10.95;7.70;;;24.40;99.50;;;24.95;100.00;100813.38;4968257;28;20042;-78
2022/05/20 09:27:25;;;;;;;;;;;24.40;99.90;;;25.18;100.00;100816.13;4969084;28;20463;-78
2022/05/20 09:30:10;;;;;;;8.65;7.40;;;24.50;99.10;;;25.29;100.00;100812.56;4959838;28;19927;-79
2022/05/20 09:32:40;;;;;;;8.18;7.03;;;24.70;98.30;;;25.33;100.00;100803.25;4939336;29;20252;-77
2022/05/20 09:35:19;;;;;;;7.03;6.22;;;24.80;98.10;;;25.55;100.00;100798.88;4954787;28;20405;-78
2022/05/20 09:37:50;;;;;;;10.98;7.00;;;24.80;98.20;;;25.37;100.00;100787.72;4953625;28;20048;-77
2022/05/20 09:40:33;;;;;;;8.88;6.32;;;25.00;97.30;;;25.48;100.00;100782.34;4952012;28;20060;-77
2022/05/20 09:43:27;;;;;;;10.13;6.97;;;25.00;97.80;;;25.57;100.00;100778.91;4951927;29;20082;-78
2022/05/20 09:45:59;;;;;;;9.35;7.43;;;25.00;97.80;;;25.70;100.00;100762.59;4951600;28;20192;-78
2022/05/20 09:48:55;;;;;;;10.75;6.38;;;25.10;98.20;;;25.77;100.00;100761.09;4969475;28;20125;-78
2022/05/20 09:51:49;;;;;;;10.68;7.32;;;25.20;97.80;;;25.76;100.00;100755.88;4956155;28;20047;-78
2022/05/20 09:54:28;;;;;;;8.48;7.28;;;25.30;97.40;;;25.78;100.00;100756.59;4978518;28;20073;-81
2022/05/20 09:57:20;;;;;;;12.50;7.33;;;25.30;98.00;;;25.86;100.00;100758.66;4971273;28;20138;-81
2022/05/20 10:00:13;;;;;;;8.75;6.43;;;25.30;97.90;;;26.10;100.00;100769.22;4984505;28;20117;-81
2022/05/20 10:03:10;;;;;;;10.15;6.55;;;25.40;97.80;;;26.25;100.00;100759.00;4960525;28;20130;-80
2022/05/20 10:05:53;;;;;;;11.63;6.75;;;25.60;97.50;;;26.54;100.00;100752.13;4970152;28;20077;-80
2022/05/20 10:09:02;;;;;;;9.25;6.43;;;25.80;97.30;;;26.63;100.00;100742.38;4962230;28;20822;-80
2022/05/20 10:11:37;;;;;;;8.75;6.20;;;26.00;96.20;;;26.54;100.00;100741.34;4963646;28;20051;-82
2022/05/20 10:14:18;;;;;;;13.18;6.03;;;26.00;96.00;;;26.83;100.00;100736.09;4986700;28;20058;-81
2022/05/20 10:17:17;;;;;;;8.48;5.90;;;26.10;95.90;;;26.92;100.00;100737.16;4975640;28;20064;-81
2022/05/20 10:20:06;;;;;;;7.60;5.63;;;26.30;95.40;;;27.20;100.00;100733.84;4971747;28;20050;-80
2022/05/20 10:23:09;;;;;;;7.50;5.72;;;26.40;94.90;;;27.37;100.00;100744.00;4973135;28;20113;-80
2022/05/20 10:25:58;;;;;;;7.55;5.70;;;26.60;95.30;;;27.63;99.94;100738.13;4959211;28;20149;-79
2022/05/20 10:34:46;;;;;;;8.20;5.18;;;27.30;92.60;;;28.12;89.31;100702.16;4952659;29;20593;-78
2022/05/20 10:37:53;;;;;;;9.38;5.00;;;27.50;92.60;;;28.39;81.95;100706.00;4969621;28;20477;-78
2022/05/20 10:40:38;;;;;;;7.60;4.72;;;27.70;91.70;;;28.55;83.23;100690.00;4977888;28;20150;-78
2022/05/20 10:48:34;;;;;;;6.07;4.30;;;27.90;91.70;;;28.61;67.23;100691.25;4956123;28;20154;-78
2022/05/20 10:49:34;;;;;;;6.97;4.57;;;28.20;88.00;;;29.08;57.69;100666.00;4973082;28;20047;-79
2022/05/20 10:52:33;;;;;;;8.90;4.38;;;28.30;85.10;;;29.16;58.10;100657.09;4956770;28;20678;-80
2022/05/20 10:55:27;;;;;;;5.43;4.57;;;28.50;81.50;;;29.10;55.21;100669.41;4958259;28;20063;-78
2022/05/20 10:58:23;;;;;;;8.05;4.53;;;28.60;80.80;;;29.18;60.40;100678.63;4977444;28;20561;-79
2022/05/20 11:00:53;;;;;;;5.60;4.38;;;28.60;82.50;;;29.07;58.69;100663.44;4975585;28;20125;-79
2022/05/20 11:03:41;;;;;;;5.47;4.95;;;28.60;81.20;;;29.02;63.01;100634.94;4973795;28;20074;-81
2022/05/20 11:06:36;;;;;;;7.25;4.38;;;28.60;82.30;;;29.08;64.83;100611.81;4963114;28;20047;-79
2022/05/20 11:09:07;;;;;;;10.63;4.97;;;28.60;83.40;;;29.03;62.97;100581.66;4975140;28;20066;-81
2022/05/20 11:11:59;;;;;;;9.35;4.47;;;28.60;82.30;;;29.14;58.88;100570.59;4976229;28;20042;-78
2022/05/20 11:14:37;;;;;;;5.53;4.18;;;28.60;81.70;;;29.21;60.59;100551.88;4973859;28;20047;-78
2022/05/20 11:17:12;;;;;;;6.22;3.95;;;28.60;81.60;;;29.36;56.66;100570.31;4971620;28;20625;-80
2022/05/20 11:19:54;;;;;;;6.22;4.70;;;28.70;80.50;;;29.37;58.00;100569.28;4970916;28;20738;-79
2022/05/20 11:22:55;;;;;;;5.30;4.30;;;28.80;80.30;;;29.60;56.52;100539.88;4972174;28;20521;-79
2022/05/20 11:25:54;;;;;;;7.78;5.03;;;28.90;79.90;;;29.84;56.79;100531.06;4987229;28;20059;-78
2022/05/20 11:28:41;;;;;;;6.65;4.43;;;29.10;79.70;;;29.90;57.77;100516.00;4988180;28;20053;-81
2022/05/20 11:31:18;;;;;;;5.30;4.45;;;29.30;79.70;;;29.91;52.11;100496.03;4972005;28;20066;-81
2022/05/20 11:34:09;;;;;;;7.43;5.20;;;29.40;76.30;;;29.96;53.82;100488.25;4971586;28;20443;-80